Stations météo

réclame
Mon MeteoGroup
Threave, Grande-Bretagne (99090): Température de l'air & dewpoint: 15.06.2018 00:00:00 - 21.06.2018 00:00:00 (BST)Threave, Grande-Bretagne (99090): Température de l'air -20cm & Température de l'air -100cm: 15.06.2018 00:00:00 - 21.06.2018 00:00:00 (BST)Threave, Grande-Bretagne (99090): Quantités de précipitations: 15.06.2018 00:00:00 - 21.06.2018 00:00:00 (BST)
Date & Time tt [°C] td [°C] tt -20cm [°C] tt -100cm [°C] rr [mm]
21.06.2018 00:00:00 - - - - -
20.06.2018 23:00:00 8,7 6,4 - - 0,2
20.06.2018 22:00:00 10,5 6,8 - - 0,0
20.06.2018 21:00:00 11,0 5,1 - - 0,0
20.06.2018 20:00:00 11,4 5,0 - - 0,0
20.06.2018 19:00:00 12,1 5,1 - - 0,0
20.06.2018 18:00:00 13,5 5,7 - - 0,0
20.06.2018 17:00:00 13,9 6,1 - - 0,0
20.06.2018 16:00:00 16,1 6,7 - - 0,0
20.06.2018 15:00:00 16,3 9,0 - - 0,0
20.06.2018 14:00:00 16,1 8,2 - - 0,0
20.06.2018 13:00:00 15,4 9,8 - - 0,0
20.06.2018 12:00:00 13,7 9,5 - - 0,0
20.06.2018 11:00:00 13,8 9,9 - - 0,0
20.06.2018 10:00:00 14,1 10,6 15,4 13,4 0,0
20.06.2018 09:00:00 15,8 13,7 - - 0,2
20.06.2018 08:00:00 13,9 13,5 - - 0,0
20.06.2018 07:00:00 13,8 13,5 - - 0,0
20.06.2018 06:00:00 13,7 13,4 - - 1,4
20.06.2018 05:00:00 14,0 13,6 - - 2,2
20.06.2018 04:00:00 14,5 14,0 - - 2,0
20.06.2018 03:00:00 15,0 14,2 - - 0,0
20.06.2018 02:00:00 14,3 13,5 - - 0,2
20.06.2018 01:00:00 14,3 13,9 - - 0,0
20.06.2018 00:00:00 13,8 13,6 - - 0,0
19.06.2018 23:00:00 13,7 13,5 - - 0,0
19.06.2018 22:00:00 11,7 11,5 - - 0,8
19.06.2018 21:00:00 10,8 10,4 - - 1,6
19.06.2018 20:00:00 11,0 10,4 - - 1,6
19.06.2018 19:00:00 10,7 10,0 - - 2,6
19.06.2018 18:00:00 10,7 9,4 - - 0,4
19.06.2018 17:00:00 13,1 7,3 - - 0,0
19.06.2018 16:00:00 13,8 6,7 - - 0,0
19.06.2018 15:00:00 14,8 7,1 - - 0,0
19.06.2018 14:00:00 13,8 6,6 - - 0,0
19.06.2018 13:00:00 13,5 7,3 - - 0,0
19.06.2018 12:00:00 13,2 8,3 - - 0,0
19.06.2018 11:00:00 13,0 7,4 - - 0,0
19.06.2018 10:00:00 13,1 8,0 15,2 13,4 0,0
19.06.2018 09:00:00 12,9 8,2 - - 0,0
19.06.2018 08:00:00 11,6 8,0 - - 0,0
19.06.2018 07:00:00 10,3 6,6 - - 0,0
19.06.2018 06:00:00 8,8 5,2 - - 0,0
19.06.2018 05:00:00 9,1 4,7 - - 0,0
19.06.2018 04:00:00 8,7 5,1 - - 0,0
19.06.2018 03:00:00 9,3 6,6 - - 0,0
19.06.2018 02:00:00 9,6 6,8 - - 0,0
19.06.2018 01:00:00 9,7 6,6 - - -
19.06.2018 00:00:00 10,6 7,1 - - 0,0
18.06.2018 23:00:00 11,3 8,0 - - 0,0
18.06.2018 22:00:00 12,1 8,5 - - 0,0
18.06.2018 21:00:00 13,1 10,4 - - 0,0
18.06.2018 20:00:00 13,5 10,4 - - 0,0
18.06.2018 19:00:00 14,0 12,2 - - 0,0
18.06.2018 18:00:00 13,8 11,6 - - 0,0
18.06.2018 17:00:00 14,0 10,9 - - 0,0
18.06.2018 16:00:00 14,8 10,4 - - 0,0
18.06.2018 15:00:00 14,5 10,2 - - 0,0
18.06.2018 14:00:00 15,8 10,5 - - 0,0
18.06.2018 13:00:00 15,9 11,4 - - 0,0
18.06.2018 12:00:00 14,4 10,3 - - 0,0
18.06.2018 11:00:00 14,7 9,9 - - 0,0
18.06.2018 10:00:00 13,7 9,8 15,4 13,5 0,0
18.06.2018 09:00:00 12,8 8,7 - - 0,0
18.06.2018 08:00:00 12,3 8,7 - - 0,0
18.06.2018 07:00:00 11,9 8,5 - - 0,0
18.06.2018 06:00:00 11,7 8,4 - - 0,0
18.06.2018 05:00:00 11,6 9,0 - - 0,0
18.06.2018 04:00:00 11,4 8,7 - - 0,0
18.06.2018 03:00:00 12,3 9,7 - - 0,0
18.06.2018 02:00:00 12,7 11,6 - - 0,0
18.06.2018 01:00:00 13,1 12,5 - - 0,0
18.06.2018 00:00:00 13,3 12,8 - - 0,0
17.06.2018 23:00:00 13,4 12,9 - - 0,0
17.06.2018 22:00:00 13,7 13,2 - - 0,0
17.06.2018 21:00:00 13,6 13,2 - - 0,0
17.06.2018 20:00:00 13,2 12,8 - - 1,0
17.06.2018 19:00:00 13,1 12,7 - - 0,4
17.06.2018 18:00:00 13,2 12,7 - - 0,0
17.06.2018 17:00:00 12,9 12,4 - - 0,2
17.06.2018 16:00:00 12,1 11,5 - - 0,0
17.06.2018 15:00:00 12,2 10,6 - - 0,0
17.06.2018 14:00:00 13,1 9,4 - - 0,0
17.06.2018 13:00:00 13,8 9,4 - - 0,0
17.06.2018 12:00:00 14,1 9,8 - - 0,0
17.06.2018 11:00:00 13,6 10,3 - - 0,0
17.06.2018 10:00:00 14,3 10,9 15,5 13,5 0,0
17.06.2018 09:00:00 13,6 10,8 - - 0,0
17.06.2018 08:00:00 12,2 10,6 - - 0,0
17.06.2018 07:00:00 11,5 10,3 - - 0,0
17.06.2018 06:00:00 10,7 9,4 - - 0,0
17.06.2018 05:00:00 9,9 8,4 - - 0,0
17.06.2018 04:00:00 9,7 8,1 - - 0,0
17.06.2018 03:00:00 9,6 8,0 - - 0,0
17.06.2018 02:00:00 9,5 7,6 - - 0,0
17.06.2018 01:00:00 9,7 7,5 - - 0,0
17.06.2018 00:00:00 9,6 7,7 - - 0,0
16.06.2018 23:00:00 9,3 7,5 - - 0,0
16.06.2018 22:00:00 10,5 7,8 - - 0,0
16.06.2018 21:00:00 12,3 6,6 - - 0,0
16.06.2018 20:00:00 13,7 7,6 - - 0,0
16.06.2018 19:00:00 12,7 8,8 - - 0,0
16.06.2018 18:00:00 14,6 8,9 - - 0,0
16.06.2018 17:00:00 14,5 10,3 - - 0,0
16.06.2018 16:00:00 13,8 10,3 - - 0,0
16.06.2018 15:00:00 15,0 10,2 - - 0,0
16.06.2018 14:00:00 15,0 12,4 - - 0,0
16.06.2018 13:00:00 13,4 12,6 - - 0,8
16.06.2018 12:00:00 12,0 11,4 - - 1,6
16.06.2018 11:00:00 11,8 11,2 - - 2,4
16.06.2018 10:00:00 11,2 10,4 15,7 13,5 1,4
16.06.2018 09:00:00 11,4 10,7 - - 1,4
16.06.2018 08:00:00 11,3 10,4 - - 1,2
16.06.2018 07:00:00 11,9 10,4 - - 0,0
16.06.2018 06:00:00 11,6 10,2 - - 0,0
16.06.2018 05:00:00 11,6 10,2 - - 0,0
16.06.2018 04:00:00 11,5 10,3 - - 0,0
16.06.2018 03:00:00 11,3 10,3 - - 0,0
16.06.2018 02:00:00 10,9 10,1 - - 0,0
16.06.2018 01:00:00 11,1 9,8 - - 0,0
16.06.2018 00:00:00 11,2 9,6 - - 0,0
15.06.2018 23:00:00 11,7 9,8 - - 0,0
15.06.2018 22:00:00 12,1 9,8 - - 0,0
15.06.2018 21:00:00 12,5 8,2 - - 0,0
15.06.2018 20:00:00 12,8 8,6 - - 0,0
15.06.2018 19:00:00 12,9 8,3 - - 0,0
15.06.2018 18:00:00 13,1 8,0 - - 0,0
15.06.2018 17:00:00 14,1 8,3 - - 0,0
15.06.2018 16:00:00 14,7 8,2 - - 0,0
15.06.2018 15:00:00 14,3 9,1 - - 0,0
15.06.2018 14:00:00 14,0 8,7 - - 0,0
15.06.2018 13:00:00 13,9 8,8 - - 0,0
15.06.2018 12:00:00 13,1 8,5 - - 0,0
15.06.2018 11:00:00 12,5 8,3 - - 0,0
15.06.2018 10:00:00 12,0 8,1 15,7 13,7 0,0
15.06.2018 09:00:00 11,3 8,1 - - 0,0
15.06.2018 08:00:00 11,0 8,0 - - 0,0
15.06.2018 07:00:00 10,0 8,1 - - 0,0
15.06.2018 06:00:00 9,7 8,0 - - 0,0
15.06.2018 05:00:00 9,2 7,4 - - 0,0
15.06.2018 04:00:00 9,8 7,6 - - 0,0
15.06.2018 03:00:00 10,8 8,3 - - 0,0
15.06.2018 02:00:00 11,2 8,9 - - 0,0
15.06.2018 01:00:00 10,9 8,9 - - 0,0
15.06.2018 00:00:00 10,5 8,8 - - 0,0

tt = Température de l'air
td = dewpoint
tt -20cm = Température de l'air -20cm
tt -100cm = Température de l'air -100cm
rr = Quantités de précipitations

stations d'obs. à proximité